NWS412 UWKD-URSS
Flight info
| Callsign | NWS412 |
|---|---|
| Flight time | 2h 38m |
| Altitude | 38000 |
| Route | SONUM T789 OGRER UROBO/K900F390 SL N50 LIDUS AST AMKOL GOTIK MEMZA BINOL |
| Aircraft | B77W/H-SDE1E2E3FGHIJ2J3J4J5M1RWXYZ/LB1D1 |
Departure
| Time | 2026-05-07 10:24 |
|---|---|
| Airport | Kazan International Airport (UWKD) |
Arrival
| Time | 2026-05-07 13:03 |
|---|---|
| Airport | Sochi International Airport (URSS) |
| Time | Latitude | Longitude | Altitude | Speed | Heading |
|---|---|---|---|---|---|
| 2026-05-07 09:54 | 55.60634 | 49.30129 | 420 ft | 0 kts | 34° |
| 2026-05-07 10:17 | 55.60623 | 49.30116 | 409 ft | 2 kts | 34° |
| 2026-05-07 10:17 | 55.60610 | 49.30099 | 415 ft | 2 kts | 33° |
| 2026-05-07 10:17 | 55.60596 | 49.30083 | 409 ft | 2 kts | 47° |
| 2026-05-07 10:18 | 55.60590 | 49.30057 | 409 ft | 2 kts | 115° |
| 2026-05-07 10:18 | 55.60599 | 49.30032 | 409 ft | 2 kts | 125° |
| 2026-05-07 10:18 | 55.60606 | 49.30013 | 409 ft | 1 kts | 126° |
| 2026-05-07 10:18 | 55.60606 | 49.30012 | 409 ft | 0 kts | 126° |
| 2026-05-07 10:21 | 55.60603 | 49.30020 | 409 ft | 5 kts | 126° |
| 2026-05-07 10:21 | 55.60550 | 49.30067 | 412 ft | 20 kts | 174° |
| 2026-05-07 10:21 | 55.60446 | 49.29984 | 413 ft | 18 kts | 216° |
| 2026-05-07 10:22 | 55.60332 | 49.29883 | 414 ft | 18 kts | 191° |
| 2026-05-07 10:22 | 55.60209 | 49.29927 | 414 ft | 18 kts | 153° |
| 2026-05-07 10:22 | 55.60096 | 49.30026 | 415 ft | 18 kts | 154° |
| 2026-05-07 10:22 | 55.59979 | 49.30116 | 410 ft | 18 kts | 163° |
| 2026-05-07 10:23 | 55.59863 | 49.30055 | 418 ft | 15 kts | 214° |
| 2026-05-07 10:23 | 55.59822 | 49.29955 | 413 ft | 7 kts | 274° |
| 2026-05-07 10:23 | 55.59847 | 49.29876 | 414 ft | 13 kts | 304° |
| 2026-05-07 10:23 | 55.60105 | 49.29217 | 411 ft | 123 kts | 304° |
| 2026-05-07 10:24 | 55.60802 | 49.27471 | 580 ft | 217 kts | 307° |
| 2026-05-07 10:24 | 55.61693 | 49.25109 | 1475 ft | 232 kts | 303° |
| 2026-05-07 10:24 | 55.62644 | 49.22625 | 1780 ft | 253 kts | 306° |
| 2026-05-07 10:24 | 55.63637 | 49.20032 | 2830 ft | 248 kts | 301° |
| 2026-05-07 10:25 | 55.64457 | 49.17582 | 3721 ft | 223 kts | 303° |
| 2026-05-07 10:25 | 55.65347 | 49.15247 | 4373 ft | 236 kts | 304° |
| 2026-05-07 10:25 | 55.65910 | 49.12498 | 4964 ft | 243 kts | 272° |
| 2026-05-07 10:25 | 55.65472 | 49.09559 | 5688 ft | 257 kts | 238° |
| 2026-05-07 10:26 | 55.64142 | 49.07361 | 6478 ft | 269 kts | 216° |
| 2026-05-07 10:26 | 55.62565 | 49.05536 | 7274 ft | 275 kts | 216° |
| 2026-05-07 10:26 | 55.60954 | 49.03649 | 7851 ft | 280 kts | 216° |
| 2026-05-07 10:26 | 55.59317 | 49.01710 | 8001 ft | 285 kts | 216° |
| 2026-05-07 10:27 | 55.57538 | 49.00213 | 7986 ft | 286 kts | 194° |
| 2026-05-07 10:27 | 55.55563 | 48.99670 | 8006 ft | 288 kts | 190° |
| 2026-05-07 10:27 | 55.53587 | 48.99187 | 8332 ft | 291 kts | 190° |
| 2026-05-07 10:27 | 55.51576 | 48.98683 | 9375 ft | 292 kts | 191° |
| 2026-05-07 10:28 | 55.49569 | 48.98164 | 10404 ft | 293 kts | 191° |
| 2026-05-07 10:28 | 55.47500 | 48.97618 | 11000 ft | 311 kts | 191° |
| 2026-05-07 10:28 | 55.45255 | 48.97017 | 11239 ft | 341 kts | 191° |
| 2026-05-07 10:28 | 55.42802 | 48.96365 | 11491 ft | 369 kts | 190° |
| 2026-05-07 10:29 | 55.40214 | 48.95679 | 12217 ft | 381 kts | 190° |
| 2026-05-07 10:29 | 55.37566 | 48.95016 | 13109 ft | 383 kts | 186° |
| 2026-05-07 10:29 | 55.34875 | 48.95443 | 13821 ft | 398 kts | 163° |
| 2026-05-07 10:30 | 55.29906 | 48.99771 | 15599 ft | 402 kts | 154° |
| 2026-05-07 10:30 | 55.27436 | 49.01976 | 16511 ft | 405 kts | 154° |
| 2026-05-07 10:30 | 55.24895 | 49.04212 | 17010 ft | 409 kts | 154° |
| 2026-05-07 10:30 | 55.22344 | 49.06443 | 16984 ft | 407 kts | 154° |
| 2026-05-07 10:31 | 55.19799 | 49.08545 | 16955 ft | 403 kts | 161° |
| 2026-05-07 10:31 | 55.17027 | 49.09379 | 16973 ft | 406 kts | 183° |
| 2026-05-07 10:31 | 55.14256 | 49.08536 | 17197 ft | 408 kts | 200° |
| 2026-05-07 10:31 | 55.11700 | 49.06419 | 17841 ft | 414 kts | 210° |
| 2026-05-07 10:32 | 55.09187 | 49.03876 | 18553 ft | 421 kts | 211° |
| 2026-05-07 10:32 | 55.06657 | 49.01255 | 19384 ft | 423 kts | 211° |
| 2026-05-07 10:32 | 55.04111 | 48.98627 | 20171 ft | 426 kts | 211° |
| 2026-05-07 10:32 | 55.01528 | 48.95991 | 20848 ft | 432 kts | 211° |
| 2026-05-07 10:33 | 54.98939 | 48.93381 | 21542 ft | 437 kts | 211° |
| 2026-05-07 10:33 | 54.96286 | 48.90727 | 22251 ft | 441 kts | 210° |
| 2026-05-07 10:33 | 54.93604 | 48.88060 | 22965 ft | 445 kts | 210° |
| 2026-05-07 10:33 | 54.90887 | 48.85364 | 23616 ft | 450 kts | 210° |
| 2026-05-07 10:34 | 54.88154 | 48.82656 | 24180 ft | 454 kts | 210° |
| 2026-05-07 10:34 | 54.85395 | 48.79924 | 24763 ft | 458 kts | 210° |
| 2026-05-07 10:34 | 54.82615 | 48.77177 | 25332 ft | 461 kts | 210° |
| 2026-05-07 10:34 | 54.79846 | 48.74449 | 25871 ft | 465 kts | 210° |
| 2026-05-07 10:35 | 54.77020 | 48.71674 | 26409 ft | 468 kts | 210° |
| 2026-05-07 10:35 | 54.74168 | 48.68877 | 26913 ft | 472 kts | 210° |
| 2026-05-07 10:35 | 54.71287 | 48.66056 | 27382 ft | 476 kts | 210° |
| 2026-05-07 10:35 | 54.68391 | 48.63223 | 27873 ft | 479 kts | 210° |
| 2026-05-07 10:36 | 54.65480 | 48.60379 | 28358 ft | 482 kts | 210° |
| 2026-05-07 10:36 | 54.62547 | 48.57519 | 28821 ft | 485 kts | 210° |
| 2026-05-07 10:36 | 54.59639 | 48.54688 | 29247 ft | 487 kts | 210° |
| 2026-05-07 10:36 | 54.56678 | 48.51810 | 29610 ft | 491 kts | 210° |
| 2026-05-07 10:37 | 54.53688 | 48.48909 | 29970 ft | 493 kts | 210° |
| 2026-05-07 10:37 | 54.50698 | 48.46013 | 30486 ft | 490 kts | 210° |
| 2026-05-07 10:37 | 54.47740 | 48.43152 | 31056 ft | 486 kts | 210° |
| 2026-05-07 10:37 | 54.44794 | 48.40308 | 31555 ft | 484 kts | 210° |
| 2026-05-07 10:38 | 54.41854 | 48.37474 | 31991 ft | 483 kts | 210° |
| 2026-05-07 10:38 | 54.38922 | 48.34651 | 32466 ft | 482 kts | 210° |
| 2026-05-07 10:38 | 54.36001 | 48.31844 | 32920 ft | 480 kts | 210° |
| 2026-05-07 10:38 | 54.33126 | 48.29085 | 33377 ft | 478 kts | 210° |
| 2026-05-07 10:39 | 54.30231 | 48.26311 | 33827 ft | 476 kts | 210° |
| 2026-05-07 10:39 | 54.27534 | 48.23732 | 34204 ft | 474 kts | 210° |
| 2026-05-07 10:39 | 54.24596 | 48.21138 | 34517 ft | 474 kts | 205° |
| 2026-05-07 10:39 | 54.21577 | 48.18827 | 34780 ft | 475 kts | 204° |
| 2026-05-07 10:40 | 54.18542 | 48.16547 | 35041 ft | 476 kts | 204° |
| 2026-05-07 10:40 | 54.15514 | 48.14279 | 35342 ft | 475 kts | 204° |
| 2026-05-07 10:40 | 54.12486 | 48.12000 | 35628 ft | 475 kts | 205° |
| 2026-05-07 10:40 | 54.09501 | 48.09743 | 35890 ft | 475 kts | 205° |
| 2026-05-07 10:41 | 54.06479 | 48.07453 | 36184 ft | 475 kts | 205° |
| 2026-05-07 10:41 | 54.03448 | 48.05155 | 36445 ft | 475 kts | 205° |
| 2026-05-07 10:41 | 54.00432 | 48.02871 | 36708 ft | 475 kts | 205° |
| 2026-05-07 10:41 | 53.97416 | 48.00591 | 36972 ft | 474 kts | 205° |
| 2026-05-07 10:42 | 53.94437 | 47.98342 | 37256 ft | 473 kts | 205° |
| 2026-05-07 10:42 | 53.91412 | 47.96062 | 37519 ft | 473 kts | 205° |
| 2026-05-07 10:42 | 53.88401 | 47.93796 | 37731 ft | 474 kts | 205° |
| 2026-05-07 10:42 | 53.85421 | 47.91559 | 37904 ft | 475 kts | 204° |
| 2026-05-07 10:43 | 53.79147 | 47.87932 | 37937 ft | 475 kts | 193° |
| 2026-05-07 10:43 | 53.72735 | 47.85492 | 37931 ft | 468 kts | 194° |
| 2026-05-07 10:44 | 53.66590 | 47.82239 | 37944 ft | 464 kts | 202° |
| 2026-05-07 10:44 | 53.60600 | 47.78146 | 37942 ft | 463 kts | 202° |
| 2026-05-07 10:45 | 53.54620 | 47.74140 | 37955 ft | 464 kts | 202° |
| 2026-05-07 10:45 | 53.48584 | 47.70147 | 37956 ft | 466 kts | 203° |
| 2026-05-07 10:46 | 53.42821 | 47.65270 | 37953 ft | 467 kts | 209° |
| 2026-05-07 10:46 | 53.37102 | 47.60017 | 37946 ft | 468 kts | 209° |
| 2026-05-07 10:47 | 53.31356 | 47.54810 | 37949 ft | 469 kts | 208° |
| 2026-05-07 10:47 | 53.25620 | 47.49668 | 37946 ft | 470 kts | 208° |
| 2026-05-07 10:48 | 53.19853 | 47.44515 | 37949 ft | 470 kts | 208° |
| 2026-05-07 10:48 | 53.14071 | 47.39364 | 37947 ft | 470 kts | 208° |
| 2026-05-07 10:49 | 53.08282 | 47.34224 | 37940 ft | 470 kts | 208° |
| 2026-05-07 10:49 | 53.02524 | 47.29125 | 37940 ft | 469 kts | 208° |
| 2026-05-07 10:50 | 52.96755 | 47.24030 | 37934 ft | 469 kts | 208° |
| 2026-05-07 10:50 | 52.90990 | 47.18952 | 37933 ft | 468 kts | 208° |
| 2026-05-07 10:51 | 52.86204 | 47.14747 | 37935 ft | 467 kts | 208° |
| 2026-05-07 10:51 | 52.79521 | 47.08898 | 37925 ft | 467 kts | 208° |
| 2026-05-07 10:52 | 52.73771 | 47.03888 | 37933 ft | 467 kts | 208° |
| 2026-05-07 10:52 | 52.68050 | 46.98916 | 37925 ft | 467 kts | 208° |
| 2026-05-07 10:53 | 52.62287 | 46.93920 | 37927 ft | 467 kts | 207° |
| 2026-05-07 10:53 | 52.56562 | 46.88970 | 37926 ft | 467 kts | 207° |
| 2026-05-07 10:54 | 52.50792 | 46.83996 | 37924 ft | 468 kts | 207° |
| 2026-05-07 10:54 | 52.45010 | 46.79031 | 37918 ft | 468 kts | 207° |
| 2026-05-07 10:55 | 52.39260 | 46.74106 | 37919 ft | 468 kts | 207° |
| 2026-05-07 10:55 | 52.33475 | 46.69165 | 37916 ft | 469 kts | 207° |
| 2026-05-07 10:56 | 52.27676 | 46.64225 | 37921 ft | 469 kts | 207° |
| 2026-05-07 10:56 | 52.21911 | 46.59325 | 37917 ft | 470 kts | 207° |
| 2026-05-07 10:57 | 52.16101 | 46.54407 | 37903 ft | 470 kts | 207° |
| 2026-05-07 10:57 | 52.10275 | 46.49494 | 37911 ft | 470 kts | 207° |
| 2026-05-07 10:58 | 52.04498 | 46.44631 | 37905 ft | 470 kts | 207° |
| 2026-05-07 10:58 | 51.98560 | 46.40154 | 37898 ft | 469 kts | 200° |
| 2026-05-07 10:59 | 51.92440 | 46.36586 | 37906 ft | 469 kts | 199° |
| 2026-05-07 10:59 | 51.86286 | 46.33044 | 37912 ft | 469 kts | 199° |
| 2026-05-07 11:00 | 51.80140 | 46.29470 | 37917 ft | 469 kts | 199° |
| 2026-05-07 11:00 | 51.74017 | 46.25893 | 37912 ft | 469 kts | 200° |
| 2026-05-07 11:01 | 51.68906 | 46.22909 | 37918 ft | 469 kts | 199° |
| 2026-05-07 11:01 | 51.62744 | 46.19322 | 37913 ft | 470 kts | 199° |
| 2026-05-07 11:02 | 51.56580 | 46.15747 | 37906 ft | 471 kts | 199° |
| 2026-05-07 11:02 | 51.50450 | 46.12201 | 37909 ft | 471 kts | 199° |
| 2026-05-07 11:03 | 51.44271 | 46.08638 | 37903 ft | 471 kts | 199° |
| 2026-05-07 11:03 | 51.38088 | 46.05082 | 37911 ft | 472 kts | 199° |
| 2026-05-07 11:04 | 51.31876 | 46.01520 | 37916 ft | 474 kts | 199° |
| 2026-05-07 11:04 | 51.25678 | 45.97977 | 37913 ft | 476 kts | 199° |
| 2026-05-07 11:05 | 51.19462 | 45.94433 | 37906 ft | 477 kts | 199° |
| 2026-05-07 11:05 | 51.13203 | 45.90875 | 37908 ft | 477 kts | 199° |
| 2026-05-07 11:06 | 51.06941 | 45.87326 | 37911 ft | 477 kts | 199° |
| 2026-05-07 11:06 | 51.00678 | 45.83786 | 37908 ft | 477 kts | 199° |
| 2026-05-07 11:07 | 50.94453 | 45.80278 | 37910 ft | 477 kts | 199° |
| 2026-05-07 11:07 | 50.88177 | 45.76751 | 37917 ft | 477 kts | 199° |
| 2026-05-07 11:08 | 50.81900 | 45.73235 | 37916 ft | 481 kts | 199° |
| 2026-05-07 11:08 | 50.75576 | 45.69701 | 37921 ft | 487 kts | 199° |
| 2026-05-07 11:09 | 50.69142 | 45.66116 | 37919 ft | 492 kts | 199° |
| 2026-05-07 11:09 | 50.62666 | 45.62518 | 37925 ft | 496 kts | 199° |
| 2026-05-07 11:10 | 50.56122 | 45.58893 | 37917 ft | 499 kts | 199° |
| 2026-05-07 11:10 | 50.49588 | 45.55285 | 37921 ft | 501 kts | 198° |
| 2026-05-07 11:11 | 50.42992 | 45.51652 | 37913 ft | 502 kts | 198° |
| 2026-05-07 11:11 | 50.36382 | 45.48023 | 37917 ft | 503 kts | 198° |
| 2026-05-07 11:12 | 50.29813 | 45.44427 | 37919 ft | 502 kts | 198° |
| 2026-05-07 11:12 | 50.23204 | 45.40821 | 37917 ft | 502 kts | 198° |
| 2026-05-07 11:13 | 50.16608 | 45.37230 | 37915 ft | 501 kts | 198° |
| 2026-05-07 11:13 | 50.10051 | 45.33669 | 37918 ft | 500 kts | 198° |
| 2026-05-07 11:14 | 50.03407 | 45.30470 | 37916 ft | 498 kts | 191° |
| 2026-05-07 11:14 | 49.96580 | 45.29095 | 37920 ft | 496 kts | 181° |
| 2026-05-07 11:15 | 49.89689 | 45.29111 | 37916 ft | 495 kts | 179° |
| 2026-05-07 11:15 | 49.82796 | 45.29214 | 37916 ft | 494 kts | 179° |
| 2026-05-07 11:16 | 49.75905 | 45.29269 | 37919 ft | 494 kts | 179° |
| 2026-05-07 11:16 | 49.69069 | 45.29289 | 37919 ft | 494 kts | 179° |
| 2026-05-07 11:17 | 49.62190 | 45.29301 | 37920 ft | 493 kts | 179° |
| 2026-05-07 11:17 | 49.55308 | 45.29315 | 37919 ft | 493 kts | 179° |
| 2026-05-07 11:18 | 49.48475 | 45.29330 | 37919 ft | 493 kts | 179° |
| 2026-05-07 11:18 | 49.41592 | 45.29347 | 37918 ft | 493 kts | 179° |
| 2026-05-07 11:19 | 49.34720 | 45.29363 | 37922 ft | 493 kts | 179° |
| 2026-05-07 11:19 | 49.27895 | 45.29378 | 37919 ft | 493 kts | 179° |
| 2026-05-07 11:20 | 49.21014 | 45.29395 | 37921 ft | 493 kts | 179° |
| 2026-05-07 11:20 | 49.14141 | 45.29412 | 37922 ft | 493 kts | 179° |
| 2026-05-07 11:21 | 49.07265 | 45.29428 | 37923 ft | 493 kts | 179° |
| 2026-05-07 11:21 | 49.00441 | 45.29443 | 37924 ft | 494 kts | 179° |
| 2026-05-07 11:22 | 48.93555 | 45.29459 | 37924 ft | 494 kts | 179° |
| 2026-05-07 11:22 | 48.86665 | 45.29476 | 37922 ft | 495 kts | 179° |
| 2026-05-07 11:23 | 48.79802 | 45.29492 | 37934 ft | 495 kts | 179° |
| 2026-05-07 11:23 | 48.72897 | 45.29508 | 37935 ft | 496 kts | 179° |
| 2026-05-07 11:24 | 48.65993 | 45.29524 | 37939 ft | 496 kts | 179° |
| 2026-05-07 11:24 | 48.59118 | 45.29539 | 37937 ft | 496 kts | 179° |
| 2026-05-07 11:25 | 48.52196 | 45.29555 | 37939 ft | 496 kts | 179° |
| 2026-05-07 11:25 | 48.45285 | 45.29597 | 37929 ft | 496 kts | 177° |
| 2026-05-07 11:26 | 48.38501 | 45.31357 | 37943 ft | 495 kts | 163° |
| 2026-05-07 11:26 | 48.32190 | 45.35266 | 37940 ft | 494 kts | 153° |
| 2026-05-07 11:27 | 48.26030 | 45.39901 | 37930 ft | 495 kts | 153° |
| 2026-05-07 11:27 | 48.19866 | 45.44510 | 37933 ft | 495 kts | 153° |
| 2026-05-07 11:28 | 48.13668 | 45.49061 | 37932 ft | 495 kts | 154° |
| 2026-05-07 11:28 | 48.07504 | 45.53546 | 37933 ft | 495 kts | 154° |
| 2026-05-07 11:29 | 48.01297 | 45.58049 | 37934 ft | 495 kts | 154° |
| 2026-05-07 11:29 | 47.95085 | 45.62546 | 37935 ft | 495 kts | 154° |
| 2026-05-07 11:30 | 47.88870 | 45.67037 | 37935 ft | 496 kts | 154° |
| 2026-05-07 11:30 | 47.82700 | 45.71483 | 37933 ft | 496 kts | 154° |
| 2026-05-07 11:31 | 47.76478 | 45.75953 | 37937 ft | 496 kts | 154° |
| 2026-05-07 11:31 | 47.70253 | 45.80415 | 37932 ft | 496 kts | 154° |
| 2026-05-07 11:32 | 47.60916 | 45.87084 | 37935 ft | 496 kts | 154° |
| 2026-05-07 11:33 | 47.54734 | 45.91485 | 37929 ft | 496 kts | 154° |
| 2026-05-07 11:33 | 47.48500 | 45.95913 | 37936 ft | 496 kts | 154° |
| 2026-05-07 11:34 | 47.42266 | 46.00330 | 37927 ft | 496 kts | 154° |
| 2026-05-07 11:34 | 47.36023 | 46.04743 | 37934 ft | 496 kts | 154° |
| 2026-05-07 11:35 | 47.29820 | 46.09128 | 37930 ft | 497 kts | 154° |
| 2026-05-07 11:35 | 47.23565 | 46.13543 | 37896 ft | 497 kts | 154° |
| 2026-05-07 11:36 | 47.17337 | 46.17927 | 37933 ft | 500 kts | 154° |
| 2026-05-07 11:36 | 47.11023 | 46.22360 | 37938 ft | 504 kts | 154° |
| 2026-05-07 11:37 | 47.05166 | 46.27957 | 37940 ft | 505 kts | 137° |
| 2026-05-07 11:37 | 47.00708 | 46.35814 | 37937 ft | 505 kts | 122° |
| 2026-05-07 11:38 | 46.97019 | 46.44607 | 37932 ft | 507 kts | 121° |
| 2026-05-07 11:38 | 46.93325 | 46.53447 | 37933 ft | 507 kts | 122° |
| 2026-05-07 11:39 | 46.89607 | 46.62151 | 37908 ft | 507 kts | 122° |
| 2026-05-07 11:39 | 46.85833 | 46.70868 | 37905 ft | 506 kts | 123° |
| 2026-05-07 11:40 | 46.82078 | 46.79501 | 37902 ft | 505 kts | 123° |
| 2026-05-07 11:40 | 46.78298 | 46.88175 | 37897 ft | 505 kts | 123° |
| 2026-05-07 11:41 | 46.74550 | 46.96756 | 37909 ft | 504 kts | 123° |
| 2026-05-07 11:41 | 46.70773 | 47.05374 | 37908 ft | 503 kts | 123° |
| 2026-05-07 11:42 | 46.66998 | 47.13965 | 37908 ft | 503 kts | 123° |
| 2026-05-07 11:42 | 46.63220 | 47.22532 | 37883 ft | 503 kts | 123° |
| 2026-05-07 11:43 | 46.59451 | 47.31055 | 37905 ft | 503 kts | 123° |
| 2026-05-07 11:43 | 46.55653 | 47.39618 | 37899 ft | 503 kts | 124° |
| 2026-05-07 11:44 | 46.51848 | 47.48166 | 37892 ft | 503 kts | 123° |
| 2026-05-07 11:44 | 46.48040 | 47.56698 | 37892 ft | 503 kts | 124° |
| 2026-05-07 11:45 | 46.44239 | 47.65188 | 38014 ft | 505 kts | 124° |
| 2026-05-07 11:45 | 46.42320 | 47.69464 | 38146 ft | 505 kts | 124° |
| 2026-05-07 11:45 | 46.40402 | 47.73732 | 38286 ft | 505 kts | 124° |
| 2026-05-07 11:45 | 46.38479 | 47.78006 | 38403 ft | 505 kts | 124° |
| 2026-05-07 11:46 | 46.36557 | 47.82273 | 38516 ft | 506 kts | 124° |
| 2026-05-07 11:46 | 46.34654 | 47.86490 | 38631 ft | 506 kts | 124° |
| 2026-05-07 11:46 | 46.32724 | 47.90757 | 38717 ft | 505 kts | 126° |
| 2026-05-07 11:46 | 46.30491 | 47.94651 | 38759 ft | 500 kts | 141° |
| 2026-05-07 11:47 | 46.27626 | 47.97441 | 38819 ft | 494 kts | 157° |
| 2026-05-07 11:47 | 46.24386 | 47.99038 | 38873 ft | 491 kts | 169° |
| 2026-05-07 11:47 | 46.21051 | 47.99620 | 38868 ft | 488 kts | 182° |
| 2026-05-07 11:48 | 46.14351 | 47.98450 | 38886 ft | 484 kts | 190° |
| 2026-05-07 11:48 | 46.08821 | 47.97187 | 38888 ft | 484 kts | 190° |
| 2026-05-07 11:49 | 46.02201 | 47.95746 | 38899 ft | 483 kts | 189° |
| 2026-05-07 11:49 | 45.95535 | 47.94391 | 38904 ft | 482 kts | 189° |
| 2026-05-07 11:50 | 45.88887 | 47.93081 | 38912 ft | 482 kts | 189° |
| 2026-05-07 11:50 | 45.82217 | 47.91775 | 38919 ft | 482 kts | 189° |
| 2026-05-07 11:51 | 45.75641 | 47.90484 | 38914 ft | 479 kts | 189° |
| 2026-05-07 11:51 | 45.69005 | 47.89179 | 38933 ft | 482 kts | 188° |
| 2026-05-07 11:52 | 45.62357 | 47.87878 | 38929 ft | 481 kts | 188° |
| 2026-05-07 11:52 | 45.55735 | 47.86582 | 38938 ft | 483 kts | 189° |
| 2026-05-07 11:53 | 45.49034 | 47.85277 | 38947 ft | 484 kts | 189° |
| 2026-05-07 11:53 | 45.42389 | 47.83985 | 38938 ft | 484 kts | 189° |
| 2026-05-07 11:54 | 45.35692 | 47.82686 | 38951 ft | 486 kts | 189° |
| 2026-05-07 11:54 | 45.28950 | 47.81381 | 38957 ft | 489 kts | 189° |
| 2026-05-07 11:55 | 45.22222 | 47.80081 | 38957 ft | 492 kts | 189° |
| 2026-05-07 11:55 | 45.15414 | 47.78770 | 38962 ft | 494 kts | 189° |
| 2026-05-07 11:56 | 45.08582 | 47.77458 | 38964 ft | 496 kts | 189° |
| 2026-05-07 11:56 | 45.01728 | 47.76144 | 38965 ft | 496 kts | 189° |
| 2026-05-07 11:57 | 44.94905 | 47.74840 | 38966 ft | 496 kts | 189° |
| 2026-05-07 11:57 | 44.88070 | 47.73536 | 38974 ft | 495 kts | 189° |
| 2026-05-07 11:58 | 44.81232 | 47.72235 | 38979 ft | 494 kts | 189° |
| 2026-05-07 11:58 | 44.74467 | 47.70951 | 38983 ft | 492 kts | 189° |
| 2026-05-07 11:59 | 44.67674 | 47.69665 | 38993 ft | 491 kts | 189° |
| 2026-05-07 11:59 | 44.60887 | 47.68382 | 38992 ft | 491 kts | 189° |
| 2026-05-07 12:00 | 44.54165 | 47.67115 | 38993 ft | 490 kts | 189° |
| 2026-05-07 12:00 | 44.47398 | 47.65842 | 39001 ft | 489 kts | 189° |
| 2026-05-07 12:01 | 44.40636 | 47.64574 | 39003 ft | 489 kts | 189° |
| 2026-05-07 12:01 | 44.33931 | 47.63319 | 39005 ft | 489 kts | 189° |
| 2026-05-07 12:02 | 44.27175 | 47.62057 | 39011 ft | 489 kts | 189° |
| 2026-05-07 12:02 | 44.20421 | 47.60798 | 39010 ft | 488 kts | 189° |
| 2026-05-07 12:03 | 44.13719 | 47.59553 | 39010 ft | 488 kts | 189° |
| 2026-05-07 12:03 | 44.06969 | 47.58301 | 39030 ft | 487 kts | 189° |
| 2026-05-07 12:04 | 44.00271 | 47.57061 | 39015 ft | 487 kts | 189° |
| 2026-05-07 12:04 | 43.93547 | 47.55820 | 39021 ft | 487 kts | 189° |
| 2026-05-07 12:05 | 43.86817 | 47.54580 | 39028 ft | 486 kts | 189° |
| 2026-05-07 12:05 | 43.80151 | 47.53354 | 39029 ft | 486 kts | 189° |
| 2026-05-07 12:06 | 43.73438 | 47.52123 | 39041 ft | 486 kts | 189° |
| 2026-05-07 12:06 | 43.67086 | 47.49418 | 39046 ft | 476 kts | 214° |
| 2026-05-07 12:06 | 43.64583 | 47.46513 | 39051 ft | 475 kts | 229° |
| 2026-05-07 12:07 | 43.62602 | 47.42876 | 39050 ft | 475 kts | 238° |
| 2026-05-07 12:07 | 43.60291 | 47.34378 | 39050 ft | 477 kts | 261° |
| 2026-05-07 12:08 | 43.59603 | 47.25273 | 39052 ft | 480 kts | 263° |
| 2026-05-07 12:08 | 43.58964 | 47.16057 | 39053 ft | 483 kts | 262° |
| 2026-05-07 12:09 | 43.58233 | 47.06851 | 39057 ft | 485 kts | 262° |
| 2026-05-07 12:09 | 43.57438 | 46.97572 | 39057 ft | 487 kts | 262° |
| 2026-05-07 12:10 | 43.56628 | 46.88291 | 39054 ft | 488 kts | 262° |
| 2026-05-07 12:10 | 43.55817 | 46.79060 | 39062 ft | 488 kts | 262° |
| 2026-05-07 12:11 | 43.54996 | 46.69762 | 39063 ft | 488 kts | 262° |
| 2026-05-07 12:11 | 43.54166 | 46.60454 | 39066 ft | 488 kts | 262° |
| 2026-05-07 12:12 | 43.53331 | 46.51169 | 39067 ft | 488 kts | 261° |
| 2026-05-07 12:12 | 43.52495 | 46.41958 | 39071 ft | 487 kts | 261° |
| 2026-05-07 12:13 | 43.51645 | 46.32684 | 39073 ft | 487 kts | 261° |
| 2026-05-07 12:13 | 43.50788 | 46.23415 | 39082 ft | 487 kts | 261° |
| 2026-05-07 12:14 | 43.49928 | 46.14175 | 39084 ft | 487 kts | 261° |
| 2026-05-07 12:14 | 43.49241 | 46.04862 | 39092 ft | 488 kts | 267° |
| 2026-05-07 12:15 | 43.49578 | 45.95568 | 39098 ft | 490 kts | 275° |
| 2026-05-07 12:15 | 43.50393 | 45.86242 | 39099 ft | 490 kts | 275° |
| 2026-05-07 12:16 | 43.51208 | 45.76893 | 39103 ft | 491 kts | 275° |
| 2026-05-07 12:16 | 43.51984 | 45.67538 | 39105 ft | 491 kts | 275° |
| 2026-05-07 12:17 | 43.52738 | 45.58183 | 39106 ft | 492 kts | 275° |
| 2026-05-07 12:17 | 43.53478 | 45.48869 | 39102 ft | 492 kts | 275° |
| 2026-05-07 12:18 | 43.54218 | 45.39473 | 39108 ft | 493 kts | 275° |
| 2026-05-07 12:18 | 43.54953 | 45.30068 | 39105 ft | 493 kts | 275° |
| 2026-05-07 12:19 | 43.55675 | 45.20715 | 39110 ft | 493 kts | 275° |
| 2026-05-07 12:19 | 43.56395 | 45.11299 | 39116 ft | 494 kts | 275° |
| 2026-05-07 12:20 | 43.57107 | 45.01864 | 39111 ft | 494 kts | 275° |
| 2026-05-07 12:20 | 43.57814 | 44.92416 | 39116 ft | 495 kts | 275° |
| 2026-05-07 12:21 | 43.58510 | 44.83005 | 39115 ft | 495 kts | 275° |
| 2026-05-07 12:21 | 43.59200 | 44.73558 | 39117 ft | 495 kts | 275° |
| 2026-05-07 12:22 | 43.59882 | 44.64100 | 39121 ft | 495 kts | 275° |
| 2026-05-07 12:22 | 43.60552 | 44.54711 | 39115 ft | 495 kts | 274° |
| 2026-05-07 12:23 | 43.61220 | 44.45240 | 39115 ft | 495 kts | 274° |
| 2026-05-07 12:23 | 43.61881 | 44.35766 | 39114 ft | 495 kts | 274° |
| 2026-05-07 12:24 | 43.62534 | 44.26288 | 39109 ft | 496 kts | 274° |
| 2026-05-07 12:24 | 43.63179 | 44.16808 | 39106 ft | 496 kts | 274° |
| 2026-05-07 12:25 | 43.63721 | 44.07357 | 39101 ft | 496 kts | 272° |
| 2026-05-07 12:25 | 43.63976 | 43.97819 | 39101 ft | 496 kts | 271° |
| 2026-05-07 12:26 | 43.64185 | 43.88351 | 39102 ft | 496 kts | 271° |
| 2026-05-07 12:26 | 43.64428 | 43.78809 | 39102 ft | 496 kts | 271° |
| 2026-05-07 12:27 | 43.64688 | 43.69285 | 39106 ft | 496 kts | 271° |
| 2026-05-07 12:27 | 43.64948 | 43.59746 | 39105 ft | 497 kts | 271° |
| 2026-05-07 12:28 | 43.65196 | 43.50255 | 39111 ft | 497 kts | 271° |
| 2026-05-07 12:28 | 43.65436 | 43.40717 | 39115 ft | 497 kts | 271° |
| 2026-05-07 12:29 | 43.65667 | 43.31148 | 39121 ft | 497 kts | 271° |
| 2026-05-07 12:29 | 43.65891 | 43.21596 | 39131 ft | 498 kts | 271° |
| 2026-05-07 12:30 | 43.66106 | 43.12089 | 39140 ft | 498 kts | 271° |
| 2026-05-07 12:30 | 43.66313 | 43.02528 | 39150 ft | 498 kts | 271° |
| 2026-05-07 12:31 | 43.66514 | 42.92946 | 39161 ft | 498 kts | 271° |
| 2026-05-07 12:31 | 43.66706 | 42.83383 | 39164 ft | 498 kts | 271° |
| 2026-05-07 12:32 | 43.66889 | 42.73866 | 39171 ft | 498 kts | 271° |
| 2026-05-07 12:32 | 43.67065 | 42.64296 | 39175 ft | 498 kts | 271° |
| 2026-05-07 12:33 | 43.67314 | 42.49981 | 39168 ft | 498 kts | 271° |
| 2026-05-07 12:33 | 43.67470 | 42.40393 | 39170 ft | 498 kts | 271° |
| 2026-05-07 12:34 | 43.67618 | 42.30838 | 39170 ft | 498 kts | 271° |
| 2026-05-07 12:34 | 43.67758 | 42.21328 | 39169 ft | 497 kts | 271° |
| 2026-05-07 12:35 | 43.67890 | 42.11768 | 39169 ft | 497 kts | 271° |
| 2026-05-07 12:35 | 43.68014 | 42.02222 | 39163 ft | 497 kts | 270° |
| 2026-05-07 12:36 | 43.68111 | 41.94251 | 39167 ft | 497 kts | 270° |
| 2026-05-07 12:36 | 43.68238 | 41.83130 | 39162 ft | 498 kts | 270° |
| 2026-05-07 12:37 | 43.68322 | 41.75170 | 39176 ft | 498 kts | 270° |
| 2026-05-07 12:37 | 43.68416 | 41.65598 | 39168 ft | 498 kts | 270° |
| 2026-05-07 12:38 | 43.68501 | 41.56017 | 39165 ft | 498 kts | 270° |
| 2026-05-07 12:38 | 43.68580 | 41.46438 | 39176 ft | 498 kts | 270° |
| 2026-05-07 12:39 | 43.68650 | 41.36865 | 39167 ft | 494 kts | 270° |
| 2026-05-07 12:39 | 43.68710 | 41.27553 | 38763 ft | 485 kts | 270° |
| 2026-05-07 12:40 | 43.68737 | 41.22900 | 38068 ft | 484 kts | 270° |
| 2026-05-07 12:40 | 43.68762 | 41.18261 | 37375 ft | 482 kts | 271° |
| 2026-05-07 12:40 | 43.68785 | 41.13642 | 36676 ft | 481 kts | 271° |
| 2026-05-07 12:40 | 43.68806 | 41.09014 | 35977 ft | 481 kts | 271° |
| 2026-05-07 12:41 | 43.68827 | 41.04369 | 35165 ft | 483 kts | 271° |
| 2026-05-07 12:41 | 43.68845 | 40.99706 | 34320 ft | 487 kts | 271° |
| 2026-05-07 12:41 | 43.68862 | 40.95003 | 33272 ft | 492 kts | 271° |
| 2026-05-07 12:41 | 43.68877 | 40.90245 | 32276 ft | 495 kts | 271° |
| 2026-05-07 12:42 | 43.68889 | 40.85534 | 31280 ft | 498 kts | 271° |
| 2026-05-07 12:42 | 43.68900 | 40.80731 | 30437 ft | 499 kts | 271° |
| 2026-05-07 12:42 | 43.68908 | 40.75955 | 29664 ft | 496 kts | 271° |
| 2026-05-07 12:42 | 43.68913 | 40.71205 | 28924 ft | 491 kts | 271° |
| 2026-05-07 12:43 | 43.68917 | 40.66494 | 28220 ft | 487 kts | 271° |
| 2026-05-07 12:43 | 43.68919 | 40.61842 | 27550 ft | 481 kts | 271° |
| 2026-05-07 12:43 | 43.68920 | 40.57244 | 26873 ft | 477 kts | 271° |
| 2026-05-07 12:43 | 43.68919 | 40.52687 | 26220 ft | 472 kts | 271° |
| 2026-05-07 12:44 | 43.68917 | 40.48154 | 25547 ft | 468 kts | 271° |
| 2026-05-07 12:44 | 43.68912 | 40.43719 | 24901 ft | 464 kts | 270° |
| 2026-05-07 12:44 | 43.68906 | 40.39274 | 24266 ft | 460 kts | 271° |
| 2026-05-07 12:44 | 43.68898 | 40.34869 | 23586 ft | 456 kts | 270° |
| 2026-05-07 12:45 | 43.68888 | 40.30508 | 22865 ft | 452 kts | 271° |
| 2026-05-07 12:45 | 43.68878 | 40.26181 | 22218 ft | 447 kts | 271° |
| 2026-05-07 12:45 | 43.68866 | 40.21916 | 21606 ft | 441 kts | 271° |
| 2026-05-07 12:45 | 43.68775 | 40.17719 | 20965 ft | 432 kts | 263° |
| 2026-05-07 12:46 | 43.67904 | 40.13775 | 20394 ft | 429 kts | 243° |
| 2026-05-07 12:46 | 43.66194 | 40.10435 | 19879 ft | 424 kts | 227° |
| 2026-05-07 12:46 | 43.64012 | 40.07822 | 19442 ft | 418 kts | 213° |
| 2026-05-07 12:46 | 43.61444 | 40.06020 | 19000 ft | 412 kts | 202° |
| 2026-05-07 12:47 | 43.58818 | 40.04480 | 18563 ft | 409 kts | 202° |
| 2026-05-07 12:47 | 43.56180 | 40.03034 | 18129 ft | 405 kts | 200° |
| 2026-05-07 12:47 | 43.53541 | 40.01728 | 17584 ft | 400 kts | 199° |
| 2026-05-07 12:47 | 43.50927 | 40.00474 | 17057 ft | 396 kts | 199° |
| 2026-05-07 12:48 | 43.48364 | 39.99235 | 16941 ft | 382 kts | 199° |
| 2026-05-07 12:48 | 43.45906 | 39.98029 | 16840 ft | 368 kts | 199° |
| 2026-05-07 12:48 | 43.43543 | 39.96861 | 16746 ft | 351 kts | 199° |
| 2026-05-07 12:48 | 43.41332 | 39.95765 | 16471 ft | 325 kts | 199° |
| 2026-05-07 12:49 | 43.39246 | 39.94733 | 15971 ft | 311 kts | 199° |
| 2026-05-07 12:49 | 43.37344 | 39.93475 | 15221 ft | 305 kts | 211° |
| 2026-05-07 12:49 | 43.35451 | 39.92187 | 14403 ft | 303 kts | 200° |
| 2026-05-07 12:49 | 43.33461 | 39.91254 | 13641 ft | 300 kts | 197° |
| 2026-05-07 12:50 | 43.31482 | 39.90404 | 12885 ft | 295 kts | 197° |
| 2026-05-07 12:50 | 43.29518 | 39.89540 | 12282 ft | 298 kts | 197° |
| 2026-05-07 12:50 | 43.27526 | 39.88660 | 11799 ft | 302 kts | 197° |
| 2026-05-07 12:50 | 43.25512 | 39.87767 | 11311 ft | 306 kts | 197° |
| 2026-05-07 12:51 | 43.23494 | 39.86873 | 10822 ft | 309 kts | 197° |
| 2026-05-07 12:51 | 43.21440 | 39.85965 | 10347 ft | 305 kts | 197° |
| 2026-05-07 12:51 | 43.19462 | 39.85092 | 9804 ft | 291 kts | 197° |
| 2026-05-07 12:51 | 43.17562 | 39.84258 | 9305 ft | 283 kts | 197° |
| 2026-05-07 12:52 | 43.15703 | 39.83447 | 8831 ft | 277 kts | 197° |
| 2026-05-07 12:52 | 43.13900 | 39.82666 | 8362 ft | 266 kts | 197° |
| 2026-05-07 12:52 | 43.12200 | 39.81936 | 7985 ft | 252 kts | 197° |
| 2026-05-07 12:52 | 43.10550 | 39.81233 | 7598 ft | 244 kts | 197° |
| 2026-05-07 12:53 | 43.08906 | 39.80538 | 7303 ft | 251 kts | 197° |
| 2026-05-07 12:53 | 43.07218 | 39.79830 | 6984 ft | 256 kts | 197° |
| 2026-05-07 12:53 | 43.05508 | 39.79114 | 6655 ft | 258 kts | 197° |
| 2026-05-07 12:53 | 43.03865 | 39.78191 | 6259 ft | 254 kts | 217° |
| 2026-05-07 12:54 | 43.02787 | 39.76351 | 6013 ft | 250 kts | 250° |
| 2026-05-07 12:54 | 43.02550 | 39.73999 | 6008 ft | 255 kts | 279° |
| 2026-05-07 12:54 | 43.03216 | 39.71770 | 5994 ft | 255 kts | 310° |
| 2026-05-07 12:54 | 43.04595 | 39.70330 | 5988 ft | 256 kts | 339° |
| 2026-05-07 12:55 | 43.06349 | 39.70033 | 5993 ft | 257 kts | 8° |
| 2026-05-07 12:55 | 43.08034 | 39.70789 | 5985 ft | 256 kts | 29° |
| 2026-05-07 12:55 | 43.09557 | 39.72003 | 5992 ft | 253 kts | 25° |
| 2026-05-07 12:55 | 43.11184 | 39.72954 | 5996 ft | 256 kts | 22° |
| 2026-05-07 12:56 | 43.12840 | 39.73903 | 5996 ft | 260 kts | 22° |
| 2026-05-07 12:56 | 43.14515 | 39.74873 | 5993 ft | 261 kts | 22° |
| 2026-05-07 12:56 | 43.16192 | 39.75848 | 5821 ft | 265 kts | 22° |
| 2026-05-07 12:56 | 43.17889 | 39.76836 | 5460 ft | 268 kts | 22° |
| 2026-05-07 12:57 | 43.19606 | 39.77838 | 5103 ft | 268 kts | 22° |
| 2026-05-07 12:57 | 43.21319 | 39.78836 | 4778 ft | 267 kts | 22° |
| 2026-05-07 12:57 | 43.23031 | 39.79835 | 4442 ft | 266 kts | 22° |
| 2026-05-07 12:57 | 43.24726 | 39.80824 | 4093 ft | 259 kts | 22° |
| 2026-05-07 12:58 | 43.26331 | 39.81761 | 3747 ft | 240 kts | 22° |
| 2026-05-07 12:58 | 43.27799 | 39.82691 | 3384 ft | 224 kts | 27° |
| 2026-05-07 12:58 | 43.29089 | 39.83661 | 3066 ft | 202 kts | 28° |
| 2026-05-07 12:58 | 43.30249 | 39.84545 | 2805 ft | 178 kts | 28° |
| 2026-05-07 12:59 | 43.31326 | 39.85360 | 2611 ft | 178 kts | 28° |
| 2026-05-07 12:59 | 43.32375 | 39.86151 | 2384 ft | 164 kts | 28° |
| 2026-05-07 12:59 | 43.33337 | 39.86874 | 2137 ft | 151 kts | 28° |
| 2026-05-07 12:59 | 43.34225 | 39.87541 | 1942 ft | 143 kts | 28° |
| 2026-05-07 13:00 | 43.35096 | 39.88196 | 1808 ft | 144 kts | 27° |
| 2026-05-07 13:00 | 43.35968 | 39.88851 | 1629 ft | 144 kts | 27° |
| 2026-05-07 13:00 | 43.36846 | 39.89510 | 1460 ft | 144 kts | 27° |
| 2026-05-07 13:00 | 43.37727 | 39.90172 | 1334 ft | 144 kts | 27° |
| 2026-05-07 13:01 | 43.38623 | 39.90842 | 1186 ft | 148 kts | 27° |
| 2026-05-07 13:01 | 43.39523 | 39.91516 | 1045 ft | 147 kts | 26° |
| 2026-05-07 13:01 | 43.40427 | 39.92194 | 790 ft | 149 kts | 26° |
| 2026-05-07 13:01 | 43.41338 | 39.92879 | 582 ft | 149 kts | 26° |
| 2026-05-07 13:02 | 43.42244 | 39.93578 | 397 ft | 153 kts | 27° |
| 2026-05-07 13:02 | 43.43173 | 39.94272 | 149 ft | 149 kts | 27° |
| 2026-05-07 13:02 | 43.44051 | 39.94917 | 83 ft | 132 kts | 29° |
| 2026-05-07 13:02 | 43.44694 | 39.95407 | 93 ft | 84 kts | 28° |
| 2026-05-07 13:03 | 43.45000 | 39.95637 | 97 ft | 32 kts | 28° |
| 2026-05-07 13:03 | 43.45189 | 39.95781 | 98 ft | 31 kts | 29° |
| 2026-05-07 13:03 | 43.45263 | 39.95834 | 99 ft | 4 kts | 16° |
| 2026-05-07 13:03 | 43.45284 | 39.95807 | 100 ft | 5 kts | 287° |
| 2026-05-07 13:04 | 43.45256 | 39.95707 | 100 ft | 21 kts | 240° |
| 2026-05-07 13:04 | 43.45173 | 39.95529 | 99 ft | 22 kts | 236° |
| 2026-05-07 13:04 | 43.45090 | 39.95350 | 95 ft | 22 kts | 243° |
| 2026-05-07 13:04 | 43.45026 | 39.95160 | 94 ft | 19 kts | 245° |
| 2026-05-07 13:05 | 43.44957 | 39.95021 | 89 ft | 18 kts | 241° |
| 2026-05-07 13:05 | 43.44912 | 39.94889 | 83 ft | 16 kts | 245° |
| 2026-05-07 13:05 | 43.44862 | 39.94744 | 85 ft | 17 kts | 245° |
| 2026-05-07 13:05 | 43.44840 | 39.94641 | 83 ft | 5 kts | 293° |
| 2026-05-07 13:06 | 43.44876 | 39.94568 | 83 ft | 11 kts | 298° |
| 2026-05-07 13:06 | 43.44893 | 39.94523 | 85 ft | 0 kts | 298° |